Appleton, Colorado
Current Conditions -  °F | °C
As of 6:53 PM on Wednesday 22 Oct 2014 (Local Time) from KGJT Reporting Station
Clear Clear  
Wind Chill: 57°   Ceiling: Unl
Heat Index: 57°   Visibility: 10mi
Dew Point: 38°   Wind: 5mph
Humidity: 49%   Direction: 50°NE
Pressure: 30.12"   Gusts: NA
Location:  39.1857°N, 108.6°W
Report Text: KGJT 230053Z 05004KT 10SM CLR 14/03 A3012 RMK AO2 SLP173 T01390033
Loading
Personal Weather Stations






























Interactive Weather Map New forecast layout! Learn more

10-Day Weather Forecast

Advertisements
Track Severe Weather on mobile